Terminal Aerodrome Forecast
Issued by NWS

Home | Current Version | Previous Version | Text Only | Print | Product List | Glossary On
Versions: 1 2 3 4 5 6 7 8 9 10 11 12 13 14 15 16 17 18 19 20 21 22
000
FTUS43 KILX 262100 AAC
TAFDEC
TAF AMD
KDEC 262150Z 2622/2718 20007KT P6SM BKN012 BKN070
     FM270200 23005KT 5SM BR OVC020
     FM270900 33008KT 4SM BR SCT005 OVC010=

USA.gov is the U.S. government's official web portal to all federal, state and local government web resources and services.